sensor_id;sensor_type;location;lat;lon;timestamp;temperature;humidity
2571;DHT22;1295;51.130;6.732;2023-02-28T00:02:20;5.60;99.90
2571;DHT22;1295;51.130;6.732;2023-02-28T00:04:46;5.60;99.90
2571;DHT22;1295;51.130;6.732;2023-02-28T00:07:11;5.50;99.90
2571;DHT22;1295;51.130;6.732;2023-02-28T00:09:37;5.50;99.90
2571;DHT22;1295;51.130;6.732;2023-02-28T00:12:03;5.50;99.90
2571;DHT22;1295;51.130;6.732;2023-02-28T00:14:29;5.50;99.90
2571;DHT22;1295;51.130;6.732;2023-02-28T00:16:55;5.50;99.90
2571;DHT22;1295;51.130;6.732;2023-02-28T00:19:20;5.50;99.90
2571;DHT22;1295;51.130;6.732;2023-02-28T00:21:46;5.50;99.90
2571;DHT22;1295;51.130;6.732;2023-02-28T00:24:12;5.50;99.90
2571;DHT22;1295;51.130;6.732;2023-02-28T00:26:37;5.50;99.90
2571;DHT22;1295;51.130;6.732;2023-02-28T00:29:04;5.40;99.90
2571;DHT22;1295;51.130;6.732;2023-02-28T00:31:30;5.40;99.90
2571;DHT22;1295;51.130;6.732;2023-02-28T00:33:56;5.40;99.90
2571;DHT22;1295;51.130;6.732;2023-02-28T00:36:22;5.40;99.90
2571;DHT22;1295;51.130;6.732;2023-02-28T00:38:47;5.40;99.90
2571;DHT22;1295;51.130;6.732;2023-02-28T00:41:14;5.40;99.90
2571;DHT22;1295;51.130;6.732;2023-02-28T00:43:45;5.40;99.90
2571;DHT22;1295;51.130;6.732;2023-02-28T00:46:11;5.40;99.90
2571;DHT22;1295;51.130;6.732;2023-02-28T00:48:37;5.40;99.90
2571;DHT22;1295;51.130;6.732;2023-02-28T00:51:04;5.30;99.90
2571;DHT22;1295;51.130;6.732;2023-02-28T00:53:30;5.30;99.90
2571;DHT22;1295;51.130;6.732;2023-02-28T00:55:56;5.30;99.90
2571;DHT22;1295;51.130;6.732;2023-02-28T00:58:22;5.30;99.90
2571;DHT22;1295;51.130;6.732;2023-02-28T01:00:47;5.30;99.90
2571;DHT22;1295;51.130;6.732;2023-02-28T01:03:15;5.10;99.90
2571;DHT22;1295;51.130;6.732;2023-02-28T01:05:44;5.10;99.90
2571;DHT22;1295;51.130;6.732;2023-02-28T01:08:10;4.90;99.90
2571;DHT22;1295;51.130;6.732;2023-02-28T01:10:36;5.00;99.90
2571;DHT22;1295;51.130;6.732;2023-02-28T01:13:02;5.00;99.90
2571;DHT22;1295;51.130;6.732;2023-02-28T01:15:28;4.90;99.90
2571;DHT22;1295;51.130;6.732;2023-02-28T01:17:53;5.10;99.90
2571;DHT22;1295;51.130;6.732;2023-02-28T01:20:20;5.10;99.90
2571;DHT22;1295;51.130;6.732;2023-02-28T01:22:46;5.10;99.90
2571;DHT22;1295;51.130;6.732;2023-02-28T01:25:11;5.20;99.90
2571;DHT22;1295;51.130;6.732;2023-02-28T01:27:38;5.20;99.90
2571;DHT22;1295;51.130;6.732;2023-02-28T01:30:04;5.20;99.90
2571;DHT22;1295;51.130;6.732;2023-02-28T01:32:30;5.20;99.90
2571;DHT22;1295;51.130;6.732;2023-02-28T01:34:56;5.20;99.90
2571;DHT22;1295;51.130;6.732;2023-02-28T01:37:21;5.20;99.90
2571;DHT22;1295;51.130;6.732;2023-02-28T01:39:48;5.10;99.90
2571;DHT22;1295;51.130;6.732;2023-02-28T01:42:13;5.10;99.90
2571;DHT22;1295;51.130;6.732;2023-02-28T01:47:18;5.10;99.90
2571;DHT22;1295;51.130;6.732;2023-02-28T01:49:43;5.10;99.90
2571;DHT22;1295;51.130;6.732;2023-02-28T01:52:10;5.10;99.90
2571;DHT22;1295;51.130;6.732;2023-02-28T01:54:36;5.10;99.90
2571;DHT22;1295;51.130;6.732;2023-02-28T01:57:05;5.10;99.90
2571;DHT22;1295;51.130;6.732;2023-02-28T01:59:32;5.10;99.90
2571;DHT22;1295;51.130;6.732;2023-02-28T02:01:55;5.10;99.90
2571;DHT22;1295;51.130;6.732;2023-02-28T02:04:21;5.00;99.90
2571;DHT22;1295;51.130;6.732;2023-02-28T02:06:46;5.00;99.90
2571;DHT22;1295;51.130;6.732;2023-02-28T02:09:12;5.00;99.90
2571;DHT22;1295;51.130;6.732;2023-02-28T02:11:39;5.00;99.90
2571;DHT22;1295;51.130;6.732;2023-02-28T02:14:15;5.00;99.90
2571;DHT22;1295;51.130;6.732;2023-02-28T02:16:52;4.90;99.90
2571;DHT22;1295;51.130;6.732;2023-02-28T02:25:18;4.90;99.90
2571;DHT22;1295;51.130;6.732;2023-02-28T02:28:06;4.90;99.90
2571;DHT22;1295;51.130;6.732;2023-02-28T02:30:40;4.90;99.90
2571;DHT22;1295;51.130;6.732;2023-02-28T02:33:05;4.90;99.90
2571;DHT22;1295;51.130;6.732;2023-02-28T02:35:52;4.90;99.90
2571;DHT22;1295;51.130;6.732;2023-02-28T02:38:20;4.90;99.90
2571;DHT22;1295;51.130;6.732;2023-02-28T02:40:59;4.90;99.90
2571;DHT22;1295;51.130;6.732;2023-02-28T02:43:25;4.90;99.90
2571;DHT22;1295;51.130;6.732;2023-02-28T02:45:53;4.90;99.90
2571;DHT22;1295;51.130;6.732;2023-02-28T02:48:18;4.90;99.90
2571;DHT22;1295;51.130;6.732;2023-02-28T02:50:44;4.90;99.90
2571;DHT22;1295;51.130;6.732;2023-02-28T02:53:09;4.80;99.90
2571;DHT22;1295;51.130;6.732;2023-02-28T02:55:36;4.80;99.90
2571;DHT22;1295;51.130;6.732;2023-02-28T02:58:02;4.80;99.90
2571;DHT22;1295;51.130;6.732;2023-02-28T03:00:30;4.80;99.90
2571;DHT22;1295;51.130;6.732;2023-02-28T03:02:54;4.80;99.90
2571;DHT22;1295;51.130;6.732;2023-02-28T03:05:21;4.80;99.90
2571;DHT22;1295;51.130;6.732;2023-02-28T03:07:45;4.80;99.90
2571;DHT22;1295;51.130;6.732;2023-02-28T03:12:50;4.80;99.90
2571;DHT22;1295;51.130;6.732;2023-02-28T03:15:19;4.70;99.90
2571;DHT22;1295;51.130;6.732;2023-02-28T03:23:06;4.70;99.90
2571;DHT22;1295;51.130;6.732;2023-02-28T03:25:33;4.70;99.90
2571;DHT22;1295;51.130;6.732;2023-02-28T03:28:09;4.70;99.90
2571;DHT22;1295;51.130;6.732;2023-02-28T03:30:52;4.70;99.90
2571;DHT22;1295;51.130;6.732;2023-02-28T03:33:19;4.70;99.90
2571;DHT22;1295;51.130;6.732;2023-02-28T03:35:48;4.60;99.90
2571;DHT22;1295;51.130;6.732;2023-02-28T03:38:15;4.70;99.90
2571;DHT22;1295;51.130;6.732;2023-02-28T03:40:39;4.60;99.90
2571;DHT22;1295;51.130;6.732;2023-02-28T03:43:08;4.60;99.90
2571;DHT22;1295;51.130;6.732;2023-02-28T03:45:32;4.60;99.90
2571;DHT22;1295;51.130;6.732;2023-02-28T03:48:01;4.60;99.90
2571;DHT22;1295;51.130;6.732;2023-02-28T03:50:24;4.60;99.90
2571;DHT22;1295;51.130;6.732;2023-02-28T03:52:56;4.60;99.90
2571;DHT22;1295;51.130;6.732;2023-02-28T03:55:20;4.60;99.90
2571;DHT22;1295;51.130;6.732;2023-02-28T03:57:56;4.60;99.90
2571;DHT22;1295;51.130;6.732;2023-02-28T04:00:21;4.60;99.90
2571;DHT22;1295;51.130;6.732;2023-02-28T04:02:45;4.50;99.90
2571;DHT22;1295;51.130;6.732;2023-02-28T04:05:12;4.50;99.90
2571;DHT22;1295;51.130;6.732;2023-02-28T04:07:37;4.50;99.90
2571;DHT22;1295;51.130;6.732;2023-02-28T04:10:04;4.50;99.90
2571;DHT22;1295;51.130;6.732;2023-02-28T04:12:30;4.50;99.90
2571;DHT22;1295;51.130;6.732;2023-02-28T04:14:55;4.50;99.90
2571;DHT22;1295;51.130;6.732;2023-02-28T04:17:21;4.50;99.90
2571;DHT22;1295;51.130;6.732;2023-02-28T04:19:46;4.50;99.90
2571;DHT22;1295;51.130;6.732;2023-02-28T04:22:12;4.50;99.90
2571;DHT22;1295;51.130;6.732;2023-02-28T04:24:39;4.50;99.90
2571;DHT22;1295;51.130;6.732;2023-02-28T04:27:04;4.40;99.90
2571;DHT22;1295;51.130;6.732;2023-02-28T04:29:31;4.50;99.90
2571;DHT22;1295;51.130;6.732;2023-02-28T04:31:56;4.40;99.90
2571;DHT22;1295;51.130;6.732;2023-02-28T04:34:21;4.40;99.90
2571;DHT22;1295;51.130;6.732;2023-02-28T04:36:47;4.40;99.90
2571;DHT22;1295;51.130;6.732;2023-02-28T04:39:13;4.40;99.90
2571;DHT22;1295;51.130;6.732;2023-02-28T04:41:38;4.40;99.90
2571;DHT22;1295;51.130;6.732;2023-02-28T04:44:04;4.40;99.90
2571;DHT22;1295;51.130;6.732;2023-02-28T04:46:30;4.40;99.90
2571;DHT22;1295;51.130;6.732;2023-02-28T04:48:55;4.40;99.90
2571;DHT22;1295;51.130;6.732;2023-02-28T04:51:21;4.40;99.90
2571;DHT22;1295;51.130;6.732;2023-02-28T04:53:47;4.30;99.90
2571;DHT22;1295;51.130;6.732;2023-02-28T04:56:13;4.30;99.90
2571;DHT22;1295;51.130;6.732;2023-02-28T04:58:38;4.30;99.90
2571;DHT22;1295;51.130;6.732;2023-02-28T05:01:04;4.30;99.90
2571;DHT22;1295;51.130;6.732;2023-02-28T05:03:29;4.30;99.90
2571;DHT22;1295;51.130;6.732;2023-02-28T05:05:55;4.30;99.90
2571;DHT22;1295;51.130;6.732;2023-02-28T05:08:21;4.30;99.90
2571;DHT22;1295;51.130;6.732;2023-02-28T05:10:47;4.30;99.90
2571;DHT22;1295;51.130;6.732;2023-02-28T05:13:13;4.20;99.90
2571;DHT22;1295;51.130;6.732;2023-02-28T05:15:38;4.30;99.90
2571;DHT22;1295;51.130;6.732;2023-02-28T05:18:04;4.30;99.90
2571;DHT22;1295;51.130;6.732;2023-02-28T05:20:30;4.30;99.90
2571;DHT22;1295;51.130;6.732;2023-02-28T05:22:56;4.30;99.90
2571;DHT22;1295;51.130;6.732;2023-02-28T05:25:21;4.20;99.90
2571;DHT22;1295;51.130;6.732;2023-02-28T05:27:47;4.20;99.90
2571;DHT22;1295;51.130;6.732;2023-02-28T05:30:13;4.20;99.90
2571;DHT22;1295;51.130;6.732;2023-02-28T05:32:39;4.20;99.90
2571;DHT22;1295;51.130;6.732;2023-02-28T05:35:05;4.20;99.90
2571;DHT22;1295;51.130;6.732;2023-02-28T05:37:30;4.20;99.90
2571;DHT22;1295;51.130;6.732;2023-02-28T05:39:56;4.20;99.90
2571;DHT22;1295;51.130;6.732;2023-02-28T05:42:22;4.10;99.90
2571;DHT22;1295;51.130;6.732;2023-02-28T05:44:47;4.10;99.90
2571;DHT22;1295;51.130;6.732;2023-02-28T05:47:13;3.90;99.90
2571;DHT22;1295;51.130;6.732;2023-02-28T05:49:39;4.10;99.90
2571;DHT22;1295;51.130;6.732;2023-02-28T05:52:04;4.10;99.90
2571;DHT22;1295;51.130;6.732;2023-02-28T05:54:30;4.10;99.90
2571;DHT22;1295;51.130;6.732;2023-02-28T05:56:56;4.10;99.90
2571;DHT22;1295;51.130;6.732;2023-02-28T05:59:22;3.90;99.90
2571;DHT22;1295;51.130;6.732;2023-02-28T06:01:47;4.00;99.90
2571;DHT22;1295;51.130;6.732;2023-02-28T06:04:14;4.00;99.90
2571;DHT22;1295;51.130;6.732;2023-02-28T06:06:39;4.00;99.90
2571;DHT22;1295;51.130;6.732;2023-02-28T06:09:04;4.00;99.90
2571;DHT22;1295;51.130;6.732;2023-02-28T06:11:30;4.00;99.90
2571;DHT22;1295;51.130;6.732;2023-02-28T06:13:56;4.00;99.90
2571;DHT22;1295;51.130;6.732;2023-02-28T06:16:22;4.00;99.90
2571;DHT22;1295;51.130;6.732;2023-02-28T06:18:48;3.80;99.90
2571;DHT22;1295;51.130;6.732;2023-02-28T06:21:13;3.80;99.90
2571;DHT22;1295;51.130;6.732;2023-02-28T06:23:39;4.00;99.90
2571;DHT22;1295;51.130;6.732;2023-02-28T06:26:05;4.00;99.90
2571;DHT22;1295;51.130;6.732;2023-02-28T06:28:31;4.00;99.90
2571;DHT22;1295;51.130;6.732;2023-02-28T06:30:56;4.00;99.90
2571;DHT22;1295;51.130;6.732;2023-02-28T06:33:22;3.90;99.90
2571;DHT22;1295;51.130;6.732;2023-02-28T06:35:50;4.00;99.90
2571;DHT22;1295;51.130;6.732;2023-02-28T06:38:15;4.00;99.90
2571;DHT22;1295;51.130;6.732;2023-02-28T06:40:41;3.90;99.90
2571;DHT22;1295;51.130;6.732;2023-02-28T06:43:07;3.90;99.90
2571;DHT22;1295;51.130;6.732;2023-02-28T06:45:34;3.90;99.90
2571;DHT22;1295;51.130;6.732;2023-02-28T06:47:59;3.90;99.90
2571;DHT22;1295;51.130;6.732;2023-02-28T06:50:26;3.80;99.90
2571;DHT22;1295;51.130;6.732;2023-02-28T06:52:51;3.80;99.90
2571;DHT22;1295;51.130;6.732;2023-02-28T06:55:17;3.80;99.90
2571;DHT22;1295;51.130;6.732;2023-02-28T06:57:43;3.80;99.90
2571;DHT22;1295;51.130;6.732;2023-02-28T07:00:10;3.80;99.90
2571;DHT22;1295;51.130;6.732;2023-02-28T07:02:36;3.90;99.90
2571;DHT22;1295;51.130;6.732;2023-02-28T07:05:02;3.80;99.90
2571;DHT22;1295;51.130;6.732;2023-02-28T07:07:27;3.90;99.90
2571;DHT22;1295;51.130;6.732;2023-02-28T07:09:54;3.80;99.90
2571;DHT22;1295;51.130;6.732;2023-02-28T07:12:19;3.70;99.90
2571;DHT22;1295;51.130;6.732;2023-02-28T07:14:46;3.80;99.90
2571;DHT22;1295;51.130;6.732;2023-02-28T07:17:11;3.80;99.90
2571;DHT22;1295;51.130;6.732;2023-02-28T07:19:38;3.80;99.90
2571;DHT22;1295;51.130;6.732;2023-02-28T07:22:04;3.60;99.90
2571;DHT22;1295;51.130;6.732;2023-02-28T07:24:29;3.50;99.90
2571;DHT22;1295;51.130;6.732;2023-02-28T07:26:55;3.60;99.90
2571;DHT22;1295;51.130;6.732;2023-02-28T07:29:21;3.60;99.90
2571;DHT22;1295;51.130;6.732;2023-02-28T07:31:47;3.30;99.90
2571;DHT22;1295;51.130;6.732;2023-02-28T07:34:13;3.30;99.90
2571;DHT22;1295;51.130;6.732;2023-02-28T07:36:38;3.20;99.90
2571;DHT22;1295;51.130;6.732;2023-02-28T07:39:04;3.30;99.90
2571;DHT22;1295;51.130;6.732;2023-02-28T07:41:30;3.50;99.90
2571;DHT22;1295;51.130;6.732;2023-02-28T07:43:55;3.20;99.90
2571;DHT22;1295;51.130;6.732;2023-02-28T07:46:21;2.90;99.90
2571;DHT22;1295;51.130;6.732;2023-02-28T07:48:47;3.30;99.90
2571;DHT22;1295;51.130;6.732;2023-02-28T07:51:13;3.10;99.90
2571;DHT22;1295;51.130;6.732;2023-02-28T07:53:38;3.50;99.90
2571;DHT22;1295;51.130;6.732;2023-02-28T07:56:06;2.80;99.90
2571;DHT22;1295;51.130;6.732;2023-02-28T07:58:32;2.70;99.90
2571;DHT22;1295;51.130;6.732;2023-02-28T08:01:04;3.10;99.90
2571;DHT22;1295;51.130;6.732;2023-02-28T08:03:23;3.60;99.90
2571;DHT22;1295;51.130;6.732;2023-02-28T08:05:49;3.70;99.90
2571;DHT22;1295;51.130;6.732;2023-02-28T08:08:16;4.10;99.90
2571;DHT22;1295;51.130;6.732;2023-02-28T08:10:46;4.10;99.90
2571;DHT22;1295;51.130;6.732;2023-02-28T08:13:11;4.10;99.90
2571;DHT22;1295;51.130;6.732;2023-02-28T08:15:37;4.20;99.90
2571;DHT22;1295;51.130;6.732;2023-02-28T08:18:03;4.30;99.90
2571;DHT22;1295;51.130;6.732;2023-02-28T08:20:28;4.50;99.90
2571;DHT22;1295;51.130;6.732;2023-02-28T08:22:54;4.50;99.90
2571;DHT22;1295;51.130;6.732;2023-02-28T08:25:20;4.50;99.90
2571;DHT22;1295;51.130;6.732;2023-02-28T08:27:47;4.50;99.90
2571;DHT22;1295;51.130;6.732;2023-02-28T08:30:13;4.50;99.90
2571;DHT22;1295;51.130;6.732;2023-02-28T08:32:40;4.80;99.90
2571;DHT22;1295;51.130;6.732;2023-02-28T08:35:06;5.00;99.90
2571;DHT22;1295;51.130;6.732;2023-02-28T08:37:32;5.00;99.90
2571;DHT22;1295;51.130;6.732;2023-02-28T08:39:57;5.10;99.90
2571;DHT22;1295;51.130;6.732;2023-02-28T08:42:23;5.00;99.90
2571;DHT22;1295;51.130;6.732;2023-02-28T08:44:49;4.80;99.90
2571;DHT22;1295;51.130;6.732;2023-02-28T08:47:14;5.30;99.90
2571;DHT22;1295;51.130;6.732;2023-02-28T08:49:40;5.30;99.90
2571;DHT22;1295;51.130;6.732;2023-02-28T08:52:06;5.60;99.90
2571;DHT22;1295;51.130;6.732;2023-02-28T08:54:32;5.60;99.90
2571;DHT22;1295;51.130;6.732;2023-02-28T08:56:58;5.60;99.90
2571;DHT22;1295;51.130;6.732;2023-02-28T08:59:23;5.40;99.90
2571;DHT22;1295;51.130;6.732;2023-02-28T09:01:50;5.70;99.90
2571;DHT22;1295;51.130;6.732;2023-02-28T09:04:16;5.70;99.90
2571;DHT22;1295;51.130;6.732;2023-02-28T09:06:41;6.30;99.90
2571;DHT22;1295;51.130;6.732;2023-02-28T09:09:07;6.30;99.90
2571;DHT22;1295;51.130;6.732;2023-02-28T09:11:34;5.90;99.90
2571;DHT22;1295;51.130;6.732;2023-02-28T09:13:58;5.80;99.90
2571;DHT22;1295;51.130;6.732;2023-02-28T09:16:24;6.30;99.90
2571;DHT22;1295;51.130;6.732;2023-02-28T09:18:50;6.60;99.90
2571;DHT22;1295;51.130;6.732;2023-02-28T09:21:16;6.20;99.90
2571;DHT22;1295;51.130;6.732;2023-02-28T09:23:47;6.40;99.90
2571;DHT22;1295;51.130;6.732;2023-02-28T09:26:14;6.50;99.90
2571;DHT22;1295;51.130;6.732;2023-02-28T09:28:39;6.20;99.90
2571;DHT22;1295;51.130;6.732;2023-02-28T09:31:05;6.20;99.90
2571;DHT22;1295;51.130;6.732;2023-02-28T09:33:31;6.10;99.90
2571;DHT22;1295;51.130;6.732;2023-02-28T09:35:58;6.10;99.90
2571;DHT22;1295;51.130;6.732;2023-02-28T09:38:23;5.90;99.90
2571;DHT22;1295;51.130;6.732;2023-02-28T09:40:50;6.00;99.90
2571;DHT22;1295;51.130;6.732;2023-02-28T09:43:15;6.00;99.90
2571;DHT22;1295;51.130;6.732;2023-02-28T09:45:42;6.70;99.90
2571;DHT22;1295;51.130;6.732;2023-02-28T09:48:14;6.60;99.90
2571;DHT22;1295;51.130;6.732;2023-02-28T09:50:40;6.00;99.90
2571;DHT22;1295;51.130;6.732;2023-02-28T09:53:10;6.00;99.90
2571;DHT22;1295;51.130;6.732;2023-02-28T09:55:44;6.50;98.40
2571;DHT22;1295;51.130;6.732;2023-02-28T09:58:15;6.90;98.40
2571;DHT22;1295;51.130;6.732;2023-02-28T10:00:39;7.50;99.90
2571;DHT22;1295;51.130;6.732;2023-02-28T10:03:25;7.00;99.90
2571;DHT22;1295;51.130;6.732;2023-02-28T10:05:51;7.00;99.90
2571;DHT22;1295;51.130;6.732;2023-02-28T10:08:17;6.60;99.90
2571;DHT22;1295;51.130;6.732;2023-02-28T10:10:48;6.30;99.90
2571;DHT22;1295;51.130;6.732;2023-02-28T10:13:18;7.50;99.90
2571;DHT22;1295;51.130;6.732;2023-02-28T10:15:41;7.90;99.90
2571;DHT22;1295;51.130;6.732;2023-02-28T10:18:09;7.10;96.80
2571;DHT22;1295;51.130;6.732;2023-02-28T10:20:33;7.50;99.60
2571;DHT22;1295;51.130;6.732;2023-02-28T10:23:21;7.60;99.90
2571;DHT22;1295;51.130;6.732;2023-02-28T10:25:48;7.00;99.90
2571;DHT22;1295;51.130;6.732;2023-02-28T10:28:13;6.70;98.20
2571;DHT22;1295;51.130;6.732;2023-02-28T10:30:39;6.70;98.30
2571;DHT22;1295;51.130;6.732;2023-02-28T10:33:03;7.00;99.90
2571;DHT22;1295;51.130;6.732;2023-02-28T10:35:29;7.00;99.90
2571;DHT22;1295;51.130;6.732;2023-02-28T10:37:56;7.10;98.50
2571;DHT22;1295;51.130;6.732;2023-02-28T10:40:32;7.20;99.70
2571;DHT22;1295;51.130;6.732;2023-02-28T10:43:02;8.10;98.00
2571;DHT22;1295;51.130;6.732;2023-02-28T10:45:26;7.40;99.90
2571;DHT22;1295;51.130;6.732;2023-02-28T10:47:56;7.20;99.90
2571;DHT22;1295;51.130;6.732;2023-02-28T10:52:53;6.60;99.90
2571;DHT22;1295;51.130;6.732;2023-02-28T10:55:20;6.70;99.90
2571;DHT22;1295;51.130;6.732;2023-02-28T10:57:45;6.70;99.90
2571;DHT22;1295;51.130;6.732;2023-02-28T11:00:16;6.90;99.90
2571;DHT22;1295;51.130;6.732;2023-02-28T11:02:41;6.90;99.90
2571;DHT22;1295;51.130;6.732;2023-02-28T11:07:46;6.80;99.90
2571;DHT22;1295;51.130;6.732;2023-02-28T11:10:16;7.10;99.90
2571;DHT22;1295;51.130;6.732;2023-02-28T11:12:36;8.10;98.70
2571;DHT22;1295;51.130;6.732;2023-02-28T11:15:03;7.90;99.20
2571;DHT22;1295;51.130;6.732;2023-02-28T11:17:31;7.00;99.90
2571;DHT22;1295;51.130;6.732;2023-02-28T11:19:57;7.10;99.90
2571;DHT22;1295;51.130;6.732;2023-02-28T11:22:23;7.10;99.90
2571;DHT22;1295;51.130;6.732;2023-02-28T11:24:48;6.50;99.90
2571;DHT22;1295;51.130;6.732;2023-02-28T11:27:50;6.60;99.90
2571;DHT22;1295;51.130;6.732;2023-02-28T11:29:58;6.80;99.90
2571;DHT22;1295;51.130;6.732;2023-02-28T11:32:24;7.40;99.90
2571;DHT22;1295;51.130;6.732;2023-02-28T11:35:10;7.10;99.90
2571;DHT22;1295;51.130;6.732;2023-02-28T11:37:27;7.80;99.90
2571;DHT22;1295;51.130;6.732;2023-02-28T11:39:53;6.90;99.90
2571;DHT22;1295;51.130;6.732;2023-02-28T11:42:36;7.60;99.70
2571;DHT22;1295;51.130;6.732;2023-02-28T11:45:19;7.20;99.90
2571;DHT22;1295;51.130;6.732;2023-02-28T11:47:48;7.30;99.90
2571;DHT22;1295;51.130;6.732;2023-02-28T11:50:16;7.30;99.90
2571;DHT22;1295;51.130;6.732;2023-02-28T11:52:45;7.00;99.90
2571;DHT22;1295;51.130;6.732;2023-02-28T11:55:45;7.40;99.90
2571;DHT22;1295;51.130;6.732;2023-02-28T12:00:54;7.30;99.90
2571;DHT22;1295;51.130;6.732;2023-02-28T12:03:31;7.30;99.90
2571;DHT22;1295;51.130;6.732;2023-02-28T12:05:58;8.00;99.90
2571;DHT22;1295;51.130;6.732;2023-02-28T12:16:54;8.70;97.10
2571;DHT22;1295;51.130;6.732;2023-02-28T12:19:22;7.90;99.20
2571;DHT22;1295;51.130;6.732;2023-02-28T12:21:53;8.40;98.80
2571;DHT22;1295;51.130;6.732;2023-02-28T12:27:01;6.90;99.90
2571;DHT22;1295;51.130;6.732;2023-02-28T12:29:29;7.80;99.90
2571;DHT22;1295;51.130;6.732;2023-02-28T12:32:30;7.80;99.90
2571;DHT22;1295;51.130;6.732;2023-02-28T12:34:37;7.80;99.90
2571;DHT22;1295;51.130;6.732;2023-02-28T12:37:03;7.80;99.60
2571;DHT22;1295;51.130;6.732;2023-02-28T12:39:30;7.10;99.90
2571;DHT22;1295;51.130;6.732;2023-02-28T12:42:01;7.10;99.90
2571;DHT22;1295;51.130;6.732;2023-02-28T12:44:28;7.50;99.90
2571;DHT22;1295;51.130;6.732;2023-02-28T12:46:54;7.60;99.90
2571;DHT22;1295;51.130;6.732;2023-02-28T12:49:23;6.90;99.90
2571;DHT22;1295;51.130;6.732;2023-02-28T12:51:47;6.50;99.90
2571;DHT22;1295;51.130;6.732;2023-02-28T12:54:21;6.30;99.90
2571;DHT22;1295;51.130;6.732;2023-02-28T12:56:52;6.90;99.90
2571;DHT22;1295;51.130;6.732;2023-02-28T12:59:17;7.20;99.90
2571;DHT22;1295;51.130;6.732;2023-02-28T13:01:55;7.20;99.90
2571;DHT22;1295;51.130;6.732;2023-02-28T13:04:34;6.90;99.90
2571;DHT22;1295;51.130;6.732;2023-02-28T13:07:19;7.00;99.40
2571;DHT22;1295;51.130;6.732;2023-02-28T13:09:51;7.80;99.70
2571;DHT22;1295;51.130;6.732;2023-02-28T13:12:14;7.80;99.80
2571;DHT22;1295;51.130;6.732;2023-02-28T13:14:39;8.00;97.00
2571;DHT22;1295;51.130;6.732;2023-02-28T13:17:14;7.90;99.10
2571;DHT22;1295;51.130;6.732;2023-02-28T13:19:43;7.20;99.90
2571;DHT22;1295;51.130;6.732;2023-02-28T13:22:15;7.60;99.40
2571;DHT22;1295;51.130;6.732;2023-02-28T13:24:40;8.40;98.40
2571;DHT22;1295;51.130;6.732;2023-02-28T13:27:20;8.30;98.10
2571;DHT22;1295;51.130;6.732;2023-02-28T13:29:39;7.60;99.90
2571;DHT22;1295;51.130;6.732;2023-02-28T13:32:28;8.00;98.90
2571;DHT22;1295;51.130;6.732;2023-02-28T13:35:12;7.60;99.90
2571;DHT22;1295;51.130;6.732;2023-02-28T13:37:36;7.60;99.90
2571;DHT22;1295;51.130;6.732;2023-02-28T13:40:24;8.50;96.90
2571;DHT22;1295;51.130;6.732;2023-02-28T13:42:34;8.30;98.80
2571;DHT22;1295;51.130;6.732;2023-02-28T13:45:20;8.00;98.20
2571;DHT22;1295;51.130;6.732;2023-02-28T13:47:43;8.00;98.10
2571;DHT22;1295;51.130;6.732;2023-02-28T13:50:29;7.80;99.20
2571;DHT22;1295;51.130;6.732;2023-02-28T13:53:26;7.80;99.20
2571;DHT22;1295;51.130;6.732;2023-02-28T13:58:51;8.30;97.60
2571;DHT22;1295;51.130;6.732;2023-02-28T14:01:34;8.30;97.40
2571;DHT22;1295;51.130;6.732;2023-02-28T14:04:09;8.40;98.10
2571;DHT22;1295;51.130;6.732;2023-02-28T14:06:31;7.40;99.90
2571;DHT22;1295;51.130;6.732;2023-02-28T14:08:58;7.30;99.90
2571;DHT22;1295;51.130;6.732;2023-02-28T14:11:26;7.50;99.50
2571;DHT22;1295;51.130;6.732;2023-02-28T14:13:50;7.90;98.30
2571;DHT22;1295;51.130;6.732;2023-02-28T14:16:17;8.10;98.90
2571;DHT22;1295;51.130;6.732;2023-02-28T14:18:42;7.50;99.90
2571;DHT22;1295;51.130;6.732;2023-02-28T14:21:16;8.00;98.60
2571;DHT22;1295;51.130;6.732;2023-02-28T14:29:01;7.40;99.90
2571;DHT22;1295;51.130;6.732;2023-02-28T14:31:27;7.50;99.90
2571;DHT22;1295;51.130;6.732;2023-02-28T14:36:33;6.90;99.90
2571;DHT22;1295;51.130;6.732;2023-02-28T14:39:00;7.10;99.90
2571;DHT22;1295;51.130;6.732;2023-02-28T14:41:31;7.10;99.90
2571;DHT22;1295;51.130;6.732;2023-02-28T14:43:56;7.00;99.90
2571;DHT22;1295;51.130;6.732;2023-02-28T14:46:22;7.30;99.90
2571;DHT22;1295;51.130;6.732;2023-02-28T14:48:47;7.30;99.80
2571;DHT22;1295;51.130;6.732;2023-02-28T14:51:18;6.90;99.90
2571;DHT22;1295;51.130;6.732;2023-02-28T14:53:44;6.90;99.90
2571;DHT22;1295;51.130;6.732;2023-02-28T14:56:18;6.90;99.90
2571;DHT22;1295;51.130;6.732;2023-02-28T14:58:35;7.10;99.90
2571;DHT22;1295;51.130;6.732;2023-02-28T15:01:01;6.80;99.90
2571;DHT22;1295;51.130;6.732;2023-02-28T15:03:37;6.90;99.90
2571;DHT22;1295;51.130;6.732;2023-02-28T15:06:03;7.20;99.90
2571;DHT22;1295;51.130;6.732;2023-02-28T15:08:29;7.20;99.90
2571;DHT22;1295;51.130;6.732;2023-02-28T15:10:57;6.90;98.90
2571;DHT22;1295;51.130;6.732;2023-02-28T15:13:22;7.10;99.90
2571;DHT22;1295;51.130;6.732;2023-02-28T15:15:56;7.00;99.90
2571;DHT22;1295;51.130;6.732;2023-02-28T15:18:27;7.10;99.90
2571;DHT22;1295;51.130;6.732;2023-02-28T15:20:51;6.90;99.90
2571;DHT22;1295;51.130;6.732;2023-02-28T15:23:16;7.10;99.90
2571;DHT22;1295;51.130;6.732;2023-02-28T15:25:42;7.10;99.90
2571;DHT22;1295;51.130;6.732;2023-02-28T15:28:11;7.00;99.90
2571;DHT22;1295;51.130;6.732;2023-02-28T15:30:35;7.10;99.90
2571;DHT22;1295;51.130;6.732;2023-02-28T15:33:05;7.00;99.90
2571;DHT22;1295;51.130;6.732;2023-02-28T15:35:30;6.90;99.90
2571;DHT22;1295;51.130;6.732;2023-02-28T15:37:56;6.90;99.90
2571;DHT22;1295;51.130;6.732;2023-02-28T15:40:37;6.90;99.90
2571;DHT22;1295;51.130;6.732;2023-02-28T15:43:14;6.80;99.90
2571;DHT22;1295;51.130;6.732;2023-02-28T15:45:44;7.00;99.90
2571;DHT22;1295;51.130;6.732;2023-02-28T15:48:18;7.00;99.90
2571;DHT22;1295;51.130;6.732;2023-02-28T15:50:48;7.00;99.90
2571;DHT22;1295;51.130;6.732;2023-02-28T15:53:13;7.00;99.90
2571;DHT22;1295;51.130;6.732;2023-02-28T15:55:38;7.00;99.90
2571;DHT22;1295;51.130;6.732;2023-02-28T15:58:04;7.00;99.90
2571;DHT22;1295;51.130;6.732;2023-02-28T16:00:30;7.00;99.90
2571;DHT22;1295;51.130;6.732;2023-02-28T16:02:55;7.00;99.90
2571;DHT22;1295;51.130;6.732;2023-02-28T16:05:29;7.00;99.90
2571;DHT22;1295;51.130;6.732;2023-02-28T16:07:55;7.00;99.90
2571;DHT22;1295;51.130;6.732;2023-02-28T16:10:21;7.00;99.90
2571;DHT22;1295;51.130;6.732;2023-02-28T16:12:46;7.00;99.90
2571;DHT22;1295;51.130;6.732;2023-02-28T16:15:21;7.00;99.90
2571;DHT22;1295;51.130;6.732;2023-02-28T16:17:46;7.00;99.90
2571;DHT22;1295;51.130;6.732;2023-02-28T16:20:29;6.90;99.90
2571;DHT22;1295;51.130;6.732;2023-02-28T16:22:53;7.00;99.90
2571;DHT22;1295;51.130;6.732;2023-02-28T16:25:20;7.00;99.90
2571;DHT22;1295;51.130;6.732;2023-02-28T16:27:46;7.10;99.90
2571;DHT22;1295;51.130;6.732;2023-02-28T16:30:17;6.90;99.90
2571;DHT22;1295;51.130;6.732;2023-02-28T16:32:41;6.80;99.90
2571;DHT22;1295;51.130;6.732;2023-02-28T16:35:09;6.90;99.90
2571;DHT22;1295;51.130;6.732;2023-02-28T16:37:32;7.00;99.90
2571;DHT22;1295;51.130;6.732;2023-02-28T16:39:59;7.00;99.90
2571;DHT22;1295;51.130;6.732;2023-02-28T16:42:27;7.00;99.90
2571;DHT22;1295;51.130;6.732;2023-02-28T16:44:52;7.10;99.90
2571;DHT22;1295;51.130;6.732;2023-02-28T16:47:17;7.10;99.90
2571;DHT22;1295;51.130;6.732;2023-02-28T16:49:43;7.00;99.90
2571;DHT22;1295;51.130;6.732;2023-02-28T16:52:10;6.90;99.90
2571;DHT22;1295;51.130;6.732;2023-02-28T16:54:35;6.90;99.90
2571;DHT22;1295;51.130;6.732;2023-02-28T16:57:01;7.00;99.90
2571;DHT22;1295;51.130;6.732;2023-02-28T16:59:27;7.00;99.90
2571;DHT22;1295;51.130;6.732;2023-02-28T17:02:00;7.00;99.90
2571;DHT22;1295;51.130;6.732;2023-02-28T17:04:26;6.80;99.90
2571;DHT22;1295;51.130;6.732;2023-02-28T17:06:51;6.90;99.90